Time;durP1;ratioP1;P1;durP2;ratioP2;P2;SDS_P1;SDS_P2;PMS_P1;PMS_P2;Temp;Humidity;BMP_temperature;BMP_pressure;BME280_temperature;BME280_humidity;BME280_pressure;Samples;Min_cycle;Max_cycle;Signal;HPM_P1;HPM_P2
2022/10/30 00:00:01;;;;;;;17.63;10.85;;;13.50;99.90;;;;;;4984982;28;20077;-84
2022/10/30 00:02:26;;;;;;;21.15;11.13;;;13.50;99.90;;;;;;4985008;28;20042;-83
2022/10/30 00:04:52;;;;;;;19.67;11.05;;;13.50;99.90;;;;;;4988324;28;20026;-81
2022/10/30 00:07:18;;;;;;;19.05;11.90;;;13.40;99.90;;;;;;5004157;28;20094;-81
2022/10/30 00:09:43;;;;;;;21.13;10.77;;;13.40;99.90;;;;;;5006418;28;20039;-80
2022/10/30 00:12:09;;;;;;;24.25;10.90;;;13.30;99.90;;;;;;5009756;28;20066;-81
2022/10/30 00:14:34;;;;;;;20.40;11.20;;;13.30;99.90;;;;;;4991371;28;20042;-81
2022/10/30 00:17:00;;;;;;;15.55;10.55;;;13.30;99.90;;;;;;5006513;28;20046;-80
2022/10/30 00:19:26;;;;;;;22.08;11.30;;;13.30;99.90;;;;;;5022541;28;20081;-82
2022/10/30 00:21:53;;;;;;;18.73;11.95;;;13.30;99.90;;;;;;5008797;28;20050;-81
2022/10/30 00:24:19;;;;;;;20.45;12.07;;;13.30;99.90;;;;;;5008307;28;20094;-82
2022/10/30 00:26:44;;;;;;;22.83;11.68;;;13.30;99.90;;;;;;5024650;28;20022;-80
2022/10/30 00:29:10;;;;;;;20.90;10.52;;;13.30;99.90;;;;;;4997599;28;20114;-80
2022/10/30 00:31:36;;;;;;;18.50;10.65;;;13.30;99.90;;;;;;5023208;28;20037;-81
2022/10/30 00:34:01;;;;;;;19.73;11.23;;;13.20;99.90;;;;;;5003317;28;20046;-80
2022/10/30 00:36:27;;;;;;;18.75;11.85;;;13.20;99.90;;;;;;5005956;28;20035;-83
2022/10/30 00:38:53;;;;;;;24.65;11.50;;;13.20;99.90;;;;;;5000787;28;20098;-81
2022/10/30 00:41:22;;;;;;;21.80;11.35;;;13.10;99.90;;;;;;5014919;28;20090;-82
2022/10/30 00:43:47;;;;;;;20.15;11.52;;;13.10;99.90;;;;;;5003130;28;20049;-83
2022/10/30 00:46:36;;;;;;;19.92;10.88;;;13.10;99.90;;;;;;5012185;28;20050;-81
2022/10/30 00:49:09;;;;;;;14.38;10.15;;;13.10;99.90;;;;;;5014429;28;20046;-80
2022/10/30 00:51:37;;;;;;;21.80;10.27;;;13.00;99.90;;;;;;5005066;28;20069;-82
2022/10/30 00:54:05;;;;;;;15.45;10.73;;;12.90;99.90;;;;;;4992242;28;20073;-82
2022/10/30 00:56:31;;;;;;;20.92;10.70;;;13.00;99.90;;;;;;5008866;28;20035;-83
2022/10/30 00:59:08;;;;;;;18.15;11.15;;;12.90;99.90;;;;;;5008319;28;20050;-82
2022/10/30 01:01:39;;;;;;;19.70;10.18;;;12.90;99.90;;;;;;5010794;28;20074;-82
2022/10/30 01:04:06;;;;;;;19.85;12.35;;;13.00;99.90;;;;;;5012448;28;20052;-81
2022/10/30 01:06:34;;;;;;;21.92;11.63;;;13.00;99.90;;;;;;5033029;28;20030;-82
2022/10/30 01:09:02;;;;;;;20.42;11.00;;;12.90;99.90;;;;;;4996954;28;20037;-83
2022/10/30 01:11:28;;;;;;;20.67;12.23;;;12.90;99.90;;;;;;5025002;28;20453;-83
2022/10/30 01:13:59;;;;;;;23.60;12.10;;;12.90;99.90;;;;;;5026391;28;20054;-82
2022/10/30 01:16:28;;;;;;;17.20;10.75;;;12.90;99.90;;;;;;5005637;28;20090;-81
2022/10/30 01:19:24;;;;;;;15.63;10.77;;;12.90;99.90;;;;;;5023436;28;20060;-81
2022/10/30 01:22:18;;;;;;;20.30;11.02;;;12.90;99.90;;;;;;5013646;28;20070;-81
2022/10/30 01:24:55;;;;;;;20.60;10.35;;;13.00;99.90;;;;;;4989651;28;20050;-80
2022/10/30 01:27:24;;;;;;;28.08;11.27;;;12.90;99.90;;;;;;5024996;28;20034;-80
2022/10/30 01:30:18;;;;;;;24.38;11.75;;;12.90;99.90;;;;;;5001984;28;20039;-83
2022/10/30 01:33:41;;;;;;;19.63;10.55;;;13.00;99.90;;;;;;5025381;28;20718;-80
2022/10/30 01:36:26;;;;;;;21.17;10.35;;;13.00;99.90;;;;;;4955004;29;20107;-80
2022/10/30 01:39:26;;;;;;;21.73;11.55;;;12.90;99.90;;;;;;4955477;29;20043;-82
2022/10/30 01:41:52;;;;;;;17.15;10.85;;;12.90;99.90;;;;;;4992040;28;20051;-80
2022/10/30 01:44:31;;;;;;;19.77;11.23;;;12.90;99.90;;;;;;5005332;28;20070;-82
2022/10/30 01:47:11;;;;;;;19.20;11.27;;;12.80;99.90;;;;;;5008730;28;20378;-81
2022/10/30 01:50:08;;;;;;;23.63;11.52;;;12.80;99.90;;;;;;5006106;28;20478;-82
2022/10/30 01:53:05;;;;;;;17.38;11.07;;;12.80;99.90;;;;;;5002209;28;20121;-82
2022/10/30 01:56:05;;;;;;;18.85;11.30;;;12.80;99.90;;;;;;4997406;28;20057;-83
2022/10/30 01:58:42;;;;;;;19.65;11.15;;;12.80;99.90;;;;;;5013976;28;20048;-82
2022/10/30 02:01:08;;;;;;;18.63;11.25;;;12.70;99.90;;;;;;4995701;28;20472;-79
2022/10/30 02:03:33;;;;;;;20.73;11.57;;;12.70;99.90;;;;;;4998511;28;20047;-79
2022/10/30 02:05:59;;;;;;;22.92;10.85;;;12.70;99.90;;;;;;4985951;28;20097;-78
2022/10/30 02:08:26;;;;;;;18.50;11.23;;;12.70;99.90;;;;;;4981115;28;20046;-80
2022/10/30 02:10:54;;;;;;;19.02;11.68;;;12.60;99.90;;;;;;4981441;28;20081;-79
2022/10/30 02:13:20;;;;;;;19.23;11.50;;;12.70;99.90;;;;;;4983956;28;20037;-79
2022/10/30 02:15:47;;;;;;;21.05;10.48;;;12.60;99.90;;;;;;4998014;28;20473;-79
2022/10/30 02:18:13;;;;;;;19.83;10.98;;;12.60;99.90;;;;;;4982914;28;20518;-79
2022/10/30 02:20:38;;;;;;;26.65;12.18;;;12.60;99.90;;;;;;4998626;28;20192;-79
2022/10/30 02:23:05;;;;;;;22.95;11.35;;;12.70;99.90;;;;;;4999550;28;20478;-79
2022/10/30 02:25:31;;;;;;;20.80;11.20;;;12.60;99.90;;;;;;4983146;28;20051;-79
2022/10/30 02:27:57;;;;;;;17.60;11.48;;;12.60;99.90;;;;;;4980242;28;20098;-80
2022/10/30 02:30:23;;;;;;;18.90;11.30;;;12.60;99.90;;;;;;4982163;28;20046;-79
2022/10/30 02:32:49;;;;;;;21.85;11.55;;;12.60;99.90;;;;;;4988682;28;20726;-80
2022/10/30 02:35:15;;;;;;;20.52;11.45;;;12.60;99.90;;;;;;4967234;28;20055;-79
2022/10/30 02:37:40;;;;;;;18.35;10.43;;;12.60;99.90;;;;;;4989182;28;20062;-79
2022/10/30 02:40:07;;;;;;;24.48;11.07;;;12.60;99.90;;;;;;4986123;28;20096;-80
2022/10/30 02:42:33;;;;;;;24.20;11.35;;;12.60;99.90;;;;;;4985542;28;20050;-79
2022/10/30 02:45:02;;;;;;;20.10;12.18;;;12.50;99.90;;;;;;4986239;28;20054;-79
2022/10/30 02:47:28;;;;;;;20.30;11.73;;;12.50;99.90;;;;;;4992440;28;20791;-80
2022/10/30 02:49:53;;;;;;;19.77;12.50;;;12.50;99.90;;;;;;4971810;28;20061;-79
2022/10/30 02:52:19;;;;;;;18.67;10.95;;;12.50;99.90;;;;;;4972929;28;20088;-80
2022/10/30 02:54:45;;;;;;;23.00;10.13;;;12.40;99.90;;;;;;4984841;28;20056;-79
2022/10/30 02:57:10;;;;;;;19.90;10.70;;;12.40;99.90;;;;;;4983647;28;20073;-80
2022/10/30 02:59:36;;;;;;;22.30;11.25;;;12.40;99.90;;;;;;5002541;28;20452;-80
2022/10/30 03:02:02;;;;;;;22.23;11.32;;;12.40;99.90;;;;;;4990209;28;20042;-79
2022/10/30 03:04:27;;;;;;;20.85;11.27;;;12.30;99.90;;;;;;4990442;28;20077;-79
2022/10/30 03:06:53;;;;;;;19.23;12.20;;;12.30;99.90;;;;;;4985401;28;20053;-79
2022/10/30 03:09:19;;;;;;;18.00;11.30;;;12.20;99.90;;;;;;4990343;28;20505;-79
2022/10/30 03:11:45;;;;;;;16.00;10.18;;;12.30;99.90;;;;;;4985222;28;20033;-80
2022/10/30 03:14:11;;;;;;;20.45;10.80;;;12.30;99.90;;;;;;5002403;28;20030;-79
2022/10/30 03:16:37;;;;;;;16.60;11.15;;;12.20;99.90;;;;;;4984915;28;20054;-79
2022/10/30 03:19:03;;;;;;;19.65;11.45;;;12.20;99.90;;;;;;4980660;28;20251;-79
2022/10/30 03:21:28;;;;;;;17.15;10.93;;;12.10;99.90;;;;;;5006068;28;20034;-79
2022/10/30 03:23:55;;;;;;;19.30;11.05;;;12.10;99.90;;;;;;4984263;28;20477;-79
2022/10/30 03:26:21;;;;;;;22.75;11.63;;;12.00;99.90;;;;;;4990436;28;20046;-79
2022/10/30 03:28:46;;;;;;;21.25;11.77;;;12.00;99.90;;;;;;4965955;28;20509;-79
2022/10/30 03:31:15;;;;;;;15.55;11.30;;;12.00;99.90;;;;;;5006756;28;20066;-79
2022/10/30 03:33:41;;;;;;;19.88;12.55;;;12.00;99.90;;;;;;4980555;28;20311;-79
2022/10/30 03:36:09;;;;;;;20.42;11.82;;;12.10;99.90;;;;;;5005548;28;20386;-79
2022/10/30 03:38:36;;;;;;;18.20;11.95;;;12.00;99.90;;;;;;5000926;28;20057;-79
2022/10/30 03:41:02;;;;;;;17.85;11.45;;;11.90;99.90;;;;;;5001051;28;20146;-79
2022/10/30 03:43:28;;;;;;;19.15;11.80;;;11.90;99.90;;;;;;4981259;28;20066;-79
2022/10/30 03:45:55;;;;;;;21.13;11.93;;;11.90;99.90;;;;;;5005765;28;20136;-79
2022/10/30 03:48:26;;;;;;;22.77;12.05;;;11.90;99.90;;;;;;4988034;28;20045;-79
2022/10/30 03:50:52;;;;;;;22.88;11.65;;;11.90;99.90;;;;;;5001474;28;20038;-80
2022/10/30 03:53:18;;;;;;;26.15;13.23;;;11.90;99.90;;;;;;4988365;28;20172;-79
2022/10/30 03:55:44;;;;;;;18.88;12.77;;;11.90;99.90;;;;;;4984991;28;20137;-79
2022/10/30 03:58:10;;;;;;;20.05;14.05;;;11.90;99.90;;;;;;4973098;28;20044;-79
2022/10/30 04:00:35;;;;;;;21.60;13.13;;;11.90;99.90;;;;;;4985342;28;20624;-81
2022/10/30 04:03:04;;;;;;;25.02;13.73;;;11.90;99.90;;;;;;5007607;28;20060;-80
2022/10/30 04:05:30;;;;;;;20.15;12.15;;;11.90;99.90;;;;;;4999588;28;20387;-79
2022/10/30 04:07:57;;;;;;;19.08;12.18;;;11.90;99.90;;;;;;4992518;28;20046;-79
2022/10/30 04:10:23;;;;;;;24.20;11.93;;;11.90;99.90;;;;;;4987543;28;20560;-79
2022/10/30 04:12:49;;;;;;;20.58;12.60;;;11.90;99.90;;;;;;4985901;28;20132;-79
2022/10/30 04:15:15;;;;;;;23.70;13.27;;;11.90;99.90;;;;;;4986693;28;20370;-79
2022/10/30 04:17:48;;;;;;;20.63;12.57;;;11.90;99.90;;;;;;5007763;28;20046;-80
2022/10/30 04:20:14;;;;;;;19.75;12.25;;;11.90;99.90;;;;;;4986813;28;20064;-79
2022/10/30 04:22:40;;;;;;;19.02;12.05;;;11.80;99.90;;;;;;4987774;28;20039;-79
2022/10/30 04:25:06;;;;;;;20.83;12.98;;;11.70;99.90;;;;;;4987796;28;20042;-79
2022/10/30 04:27:41;;;;;;;25.05;12.95;;;11.80;99.90;;;;;;4973379;28;20419;-78
2022/10/30 04:30:09;;;;;;;22.17;12.45;;;11.70;99.90;;;;;;4993199;28;20037;-80
2022/10/30 04:32:35;;;;;;;21.58;12.88;;;11.70;99.90;;;;;;4991092;28;20042;-81
2022/10/30 04:35:03;;;;;;;23.88;12.40;;;11.70;99.90;;;;;;4990356;28;20126;-79
2022/10/30 04:37:29;;;;;;;25.33;12.98;;;11.70;99.90;;;;;;4988999;28;20061;-79
2022/10/30 04:39:55;;;;;;;21.67;12.82;;;11.70;99.90;;;;;;5002104;28;20568;-79
2022/10/30 04:42:20;;;;;;;26.27;12.60;;;11.60;99.90;;;;;;5003235;28;20112;-80
2022/10/30 04:44:46;;;;;;;22.23;13.48;;;11.60;99.90;;;;;;4980903;28;20100;-79
2022/10/30 04:47:11;;;;;;;25.20;12.80;;;11.60;99.90;;;;;;4978922;28;20422;-80
2022/10/30 04:49:37;;;;;;;28.08;13.63;;;11.70;99.90;;;;;;4987348;28;20460;-81
2022/10/30 04:52:03;;;;;;;22.35;13.18;;;11.60;99.90;;;;;;4991835;28;20042;-79
2022/10/30 04:54:28;;;;;;;22.77;13.05;;;11.60;99.90;;;;;;4989005;28;20042;-80
2022/10/30 04:56:54;;;;;;;22.45;13.02;;;11.60;99.90;;;;;;4985297;28;20125;-81
2022/10/30 04:59:20;;;;;;;18.48;12.70;;;11.50;99.90;;;;;;5004683;28;20042;-79
2022/10/30 05:01:45;;;;;;;24.77;13.25;;;11.50;99.90;;;;;;4987882;28;20621;-80
2022/10/30 05:04:11;;;;;;;22.88;13.30;;;11.50;99.90;;;;;;4987321;28;20057;-80
2022/10/30 05:06:37;;;;;;;19.60;12.88;;;11.50;99.90;;;;;;5001988;28;20050;-79
2022/10/30 05:09:03;;;;;;;24.25;12.98;;;11.50;99.90;;;;;;4976506;28;20039;-79
2022/10/30 05:11:28;;;;;;;20.02;13.98;;;11.50;99.90;;;;;;4985157;28;20049;-79
2022/10/30 05:13:55;;;;;;;23.52;13.18;;;11.50;99.90;;;;;;4973365;28;20038;-79
2022/10/30 05:16:20;;;;;;;19.40;12.32;;;11.40;99.90;;;;;;4992928;28;20060;-79
2022/10/30 05:18:46;;;;;;;25.67;14.02;;;11.40;99.90;;;;;;5002983;28;20042;-79
2022/10/30 05:21:12;;;;;;;23.25;14.32;;;11.50;99.90;;;;;;4980449;28;20050;-80
2022/10/30 05:23:37;;;;;;;25.05;13.52;;;11.50;99.90;;;;;;4987620;28;20048;-79
2022/10/30 05:26:03;;;;;;;20.35;13.00;;;11.50;99.90;;;;;;5003337;28;20076;-79
2022/10/30 05:28:29;;;;;;;22.60;13.20;;;11.50;99.90;;;;;;4990554;28;20108;-79
2022/10/30 05:30:54;;;;;;;22.95;13.45;;;11.50;99.90;;;;;;5000077;28;20042;-79
2022/10/30 05:33:20;;;;;;;23.52;13.68;;;11.50;99.90;;;;;;4967315;28;20034;-79
2022/10/30 05:35:46;;;;;;;26.15;15.65;;;11.50;99.90;;;;;;5003879;28;20080;-79
2022/10/30 05:38:13;;;;;;;22.65;14.32;;;11.50;99.90;;;;;;4992311;28;20053;-80
2022/10/30 05:40:39;;;;;;;29.27;14.63;;;11.60;99.90;;;;;;4990277;28;20497;-79
2022/10/30 05:43:04;;;;;;;22.88;14.05;;;11.60;99.90;;;;;;5015978;28;20053;-78
2022/10/30 05:45:30;;;;;;;21.40;14.43;;;11.60;99.90;;;;;;4985555;28;20478;-80
2022/10/30 05:48:02;;;;;;;25.80;14.98;;;11.60;99.90;;;;;;5018275;28;20091;-79
2022/10/30 05:50:28;;;;;;;25.55;13.13;;;11.60;99.90;;;;;;4985299;28;20042;-80
2022/10/30 05:52:59;;;;;;;23.20;15.02;;;11.60;99.90;;;;;;5019643;28;20030;-79
2022/10/30 05:55:25;;;;;;;26.92;14.50;;;11.60;99.90;;;;;;5023264;28;20046;-79
2022/10/30 05:57:58;;;;;;;19.35;13.18;;;11.70;99.90;;;;;;5012121;28;20077;-79
2022/10/30 06:00:25;;;;;;;24.00;13.82;;;11.70;99.90;;;;;;5001893;28;20129;-80
2022/10/30 06:02:50;;;;;;;21.25;13.40;;;11.70;99.90;;;;;;4986792;28;20042;-79
2022/10/30 06:05:16;;;;;;;25.80;14.82;;;11.60;99.90;;;;;;4992949;28;20077;-80
2022/10/30 06:07:42;;;;;;;24.13;14.20;;;11.70;99.90;;;;;;5007892;28;20045;-79
2022/10/30 06:10:08;;;;;;;24.10;13.85;;;11.60;99.90;;;;;;4989556;28;20049;-79
2022/10/30 06:12:34;;;;;;;25.48;14.63;;;11.60;99.90;;;;;;4992112;28;20443;-80
2022/10/30 06:15:00;;;;;;;25.00;14.07;;;11.60;99.90;;;;;;5022694;28;20104;-79
2022/10/30 06:17:25;;;;;;;22.30;13.93;;;11.50;99.90;;;;;;4983766;28;20449;-80
2022/10/30 06:19:51;;;;;;;21.15;13.98;;;11.60;99.90;;;;;;4987132;28;20054;-80
2022/10/30 06:22:17;;;;;;;26.35;14.88;;;11.50;99.90;;;;;;4990741;28;20049;-81
2022/10/30 06:24:42;;;;;;;25.33;13.73;;;11.50;99.90;;;;;;4981726;28;20042;-80
2022/10/30 06:27:08;;;;;;;23.95;13.35;;;11.60;99.90;;;;;;4984589;28;20046;-80
2022/10/30 06:29:33;;;;;;;28.15;13.82;;;11.50;99.90;;;;;;4986553;28;20417;-79
2022/10/30 06:31:59;;;;;;;22.27;14.73;;;11.50;99.90;;;;;;5006645;28;20054;-79
2022/10/30 06:34:26;;;;;;;18.52;12.68;;;11.60;99.90;;;;;;4989509;28;20053;-80
2022/10/30 06:36:51;;;;;;;18.23;13.38;;;11.50;99.90;;;;;;4998293;28;20146;-79
2022/10/30 06:39:17;;;;;;;24.30;14.25;;;11.50;99.90;;;;;;4992646;28;20049;-81
2022/10/30 06:41:43;;;;;;;21.63;13.95;;;11.50;99.90;;;;;;4988015;28;20049;-79
2022/10/30 06:44:09;;;;;;;20.55;13.45;;;11.40;99.90;;;;;;4992178;28;20068;-79
2022/10/30 06:46:34;;;;;;;24.90;14.35;;;11.40;99.90;;;;;;5002502;28;20050;-80
2022/10/30 06:49:00;;;;;;;20.75;13.52;;;11.40;99.90;;;;;;5021096;28;20050;-80
2022/10/30 06:51:26;;;;;;;18.98;13.10;;;11.50;99.90;;;;;;5019659;28;20054;-80
2022/10/30 06:53:51;;;;;;;20.08;12.48;;;11.50;99.90;;;;;;5020566;28;20042;-80
2022/10/30 06:56:17;;;;;;;23.67;14.35;;;11.50;99.90;;;;;;4988438;28;20506;-79
2022/10/30 06:58:43;;;;;;;21.80;13.82;;;11.50;99.90;;;;;;5007857;28;20062;-79
2022/10/30 07:01:08;;;;;;;26.00;15.05;;;11.50;99.90;;;;;;4993132;28;20046;-79
2022/10/30 07:03:34;;;;;;;25.50;14.77;;;11.60;99.90;;;;;;4999776;28;20494;-79
2022/10/30 07:06:01;;;;;;;21.98;13.45;;;11.60;99.90;;;;;;4983030;28;20051;-79
2022/10/30 07:08:26;;;;;;;27.65;15.07;;;11.70;99.90;;;;;;5020829;28;20113;-79
2022/10/30 07:10:54;;;;;;;23.73;15.20;;;11.70;99.90;;;;;;4985286;28;20046;-79
2022/10/30 07:13:20;;;;;;;26.45;15.38;;;11.80;99.90;;;;;;5023197;28;20410;-79
2022/10/30 07:15:46;;;;;;;26.23;14.80;;;11.90;99.90;;;;;;5017220;28;20048;-78
2022/10/30 07:18:11;;;;;;;23.25;15.95;;;12.00;99.90;;;;;;5006836;28;20046;-79
2022/10/30 07:20:37;;;;;;;27.38;15.00;;;12.10;99.90;;;;;;4983580;28;20489;-79
2022/10/30 07:23:03;;;;;;;22.70;16.02;;;12.30;99.90;;;;;;5020527;28;20050;-79
2022/10/30 07:25:29;;;;;;;24.55;14.30;;;12.50;99.90;;;;;;5022829;28;20386;-79
2022/10/30 07:27:56;;;;;;;24.52;14.90;;;12.80;99.90;;;;;;4986964;28;20449;-78
2022/10/30 07:30:24;;;;;;;23.63;14.55;;;13.30;99.90;;;;;;4979696;28;20034;-79
2022/10/30 07:32:58;;;;;;;27.42;13.77;;;13.80;99.90;;;;;;4984510;28;20050;-79
2022/10/30 07:35:24;;;;;;;20.17;13.27;;;14.20;99.90;;;;;;4986888;28;20124;-78
2022/10/30 07:37:50;;;;;;;19.00;12.60;;;14.80;99.90;;;;;;4990908;28;20312;-78
2022/10/30 07:40:15;;;;;;;16.58;12.80;;;15.20;99.90;;;;;;4986929;28;20170;-78
2022/10/30 07:42:41;;;;;;;19.63;13.43;;;15.60;99.90;;;;;;5018244;28;20053;-78
2022/10/30 07:45:10;;;;;;;20.95;12.93;;;15.90;99.90;;;;;;5000858;28;20479;-78
2022/10/30 07:47:42;;;;;;;20.55;13.15;;;16.40;99.90;;;;;;5018276;28;20561;-80
2022/10/30 07:50:10;;;;;;;18.70;11.88;;;16.80;99.90;;;;;;4976425;28;20046;-78
2022/10/30 07:52:36;;;;;;;17.83;12.55;;;17.20;99.90;;;;;;4996579;28;20081;-77
2022/10/30 07:55:02;;;;;;;19.55;12.75;;;17.70;99.90;;;;;;5020725;28;20073;-78
2022/10/30 07:57:34;;;;;;;17.48;12.32;;;18.20;99.90;;;;;;5011666;28;20096;-78
2022/10/30 07:59:59;;;;;;;17.10;11.45;;;18.70;99.90;;;;;;5013680;28;20450;-78
2022/10/30 08:02:25;;;;;;;18.95;11.45;;;19.20;99.90;;;;;;4994269;28;20053;-78
2022/10/30 08:04:51;;;;;;;20.33;11.55;;;19.40;99.90;;;;;;5012889;28;20057;-78
2022/10/30 08:07:18;;;;;;;16.95;11.95;;;19.70;99.90;;;;;;5015062;28;20042;-77
2022/10/30 08:09:44;;;;;;;21.30;12.43;;;20.10;99.90;;;;;;5013163;28;20043;-77
2022/10/30 08:12:10;;;;;;;19.67;11.40;;;20.50;99.90;;;;;;5015557;28;20637;-77
2022/10/30 08:14:36;;;;;;;16.65;10.88;;;20.80;99.90;;;;;;4981970;28;20133;-78
2022/10/30 08:17:01;;;;;;;14.95;11.00;;;21.10;99.90;;;;;;5012452;28;20518;-77
2022/10/30 08:19:27;;;;;;;17.33;10.85;;;21.20;99.90;;;;;;5013742;28;20037;-78
2022/10/30 08:21:54;;;;;;;12.57;10.02;;;21.40;99.90;;;;;;4997988;28;20054;-77
2022/10/30 08:24:20;;;;;;;19.67;12.05;;;21.70;99.90;;;;;;4981808;28;21378;-78
2022/10/30 08:26:46;;;;;;;17.20;11.02;;;21.80;99.90;;;;;;5014611;28;20050;-78
2022/10/30 08:29:11;;;;;;;16.05;10.73;;;21.90;99.90;;;;;;4982502;28;20038;-77
2022/10/30 08:31:37;;;;;;;18.23;11.68;;;22.10;99.90;;;;;;5003522;28;20821;-77
2022/10/30 08:34:04;;;;;;;20.92;10.80;;;22.20;99.90;;;;;;4995017;28;20062;-79
2022/10/30 08:36:30;;;;;;;16.05;10.50;;;22.30;99.90;;;;;;4978817;28;20054;-78
2022/10/30 08:38:57;;;;;;;17.33;10.57;;;22.50;99.90;;;;;;4982320;28;20042;-78
2022/10/30 08:41:23;;;;;;;15.98;10.77;;;22.80;99.90;;;;;;4983366;28;21618;-78
2022/10/30 08:43:48;;;;;;;21.80;11.27;;;23.20;99.90;;;;;;4980812;28;20088;-77
2022/10/30 08:46:14;;;;;;;15.38;11.32;;;23.40;99.90;;;;;;4984007;28;20521;-77
2022/10/30 08:48:40;;;;;;;18.42;10.43;;;23.60;99.90;;;;;;4986320;28;20064;-77
2022/10/30 08:51:06;;;;;;;15.55;10.52;;;23.90;99.90;;;;;;4974059;28;20056;-77
2022/10/30 08:53:31;;;;;;;13.70;10.20;;;24.20;99.90;;;;;;5003745;28;20605;-77
2022/10/30 08:55:57;;;;;;;14.93;10.65;;;24.50;99.70;;;;;;5021563;28;20077;-79
2022/10/30 08:58:27;;;;;;;19.40;9.73;;;24.70;98.30;;;;;;4994847;28;20143;-79
2022/10/30 09:01:00;;;;;;;16.60;9.93;;;24.80;97.10;;;;;;5024555;28;20498;-77
2022/10/30 09:03:28;;;;;;;13.00;9.45;;;24.90;96.80;;;;;;4989499;28;20127;-77
2022/10/30 09:06:01;;;;;;;14.88;10.02;;;25.40;97.20;;;;;;5021416;28;20092;-77
2022/10/30 09:08:32;;;;;;;13.25;9.15;;;26.00;94.90;;;;;;4985448;28;20053;-77
2022/10/30 09:10:59;;;;;;;13.82;8.65;;;26.40;93.10;;;;;;4986044;28;20045;-78
2022/10/30 09:13:25;;;;;;;15.00;9.02;;;26.70;91.40;;;;;;5003632;28;20046;-77
2022/10/30 09:15:50;;;;;;;15.18;9.20;;;26.80;89.00;;;;;;4987303;28;20042;-77
2022/10/30 09:18:16;;;;;;;13.20;8.32;;;26.70;87.20;;;;;;4979876;28;20103;-78
2022/10/30 09:20:42;;;;;;;14.70;9.13;;;26.30;88.00;;;;;;4984234;28;20128;-77
2022/10/30 09:23:08;;;;;;;15.35;10.00;;;26.40;87.90;;;;;;4987171;28;20045;-79
2022/10/30 09:25:34;;;;;;;17.23;8.23;;;26.50;86.60;;;;;;4996838;28;20046;-77
2022/10/30 09:27:59;;;;;;;15.35;9.30;;;26.50;85.40;;;;;;4985243;28;20038;-76
2022/10/30 09:30:25;;;;;;;15.02;8.95;;;26.70;85.70;;;;;;5001238;28;20045;-77
2022/10/30 09:32:59;;;;;;;16.50;9.32;;;26.90;84.50;;;;;;5001621;28;20057;-77
2022/10/30 09:35:25;;;;;;;;;;;27.10;85.30;;;;;;5020089;28;20045;-77
2022/10/30 09:37:50;;;;;;;13.20;8.75;;;27.50;83.00;;;;;;4987374;28;19922;-77
2022/10/30 09:40:21;;;;;;;15.15;8.82;;;27.90;84.10;;;;;;4996545;28;20077;-77
2022/10/30 09:42:49;;;;;;;17.73;9.50;;;28.30;80.20;;;;;;4980024;28;20088;-77
2022/10/30 09:45:45;;;;;;;15.45;8.50;;;28.60;79.90;;;;;;5012836;28;20061;-77
2022/10/30 09:48:25;;;;;;;12.55;8.23;;;29.00;74.80;;;;;;4982950;28;20034;-77
2022/10/30 09:51:18;;;;;;;13.05;8.40;;;29.10;71.80;;;;;;4982486;28;20042;-77
2022/10/30 09:54:10;;;;;;;15.48;8.32;;;29.00;74.00;;;;;;5011824;28;20046;-77
2022/10/30 09:56:44;;;;;;;13.10;8.05;;;28.90;73.80;;;;;;4984233;28;20037;-78
2022/10/30 09:59:30;;;;;;;15.98;8.35;;;29.00;74.20;;;;;;5001397;28;20391;-78
2022/10/30 10:02:14;;;;;;;16.15;8.65;;;29.20;73.90;;;;;;4987208;28;20038;-78
2022/10/30 10:04:44;;;;;;;12.88;8.25;;;28.90;72.50;;;;;;5002744;28;20107;-77
2022/10/30 10:07:20;;;;;;;16.95;8.25;;;28.90;73.00;;;;;;4992135;28;20490;-79
2022/10/30 10:09:49;;;;;;;14.77;8.25;;;29.20;73.80;;;;;;4973331;28;20682;-77
2022/10/30 10:12:52;;;;;;;13.63;7.82;;;29.60;73.00;;;;;;4997599;28;20046;-78
2022/10/30 10:15:33;;;;;;;13.13;7.57;;;30.10;72.70;;;;;;5022341;28;20140;-77
2022/10/30 10:18:01;;;;;;;15.68;8.27;;;29.80;69.30;;;;;;4999960;28;20057;-77
2022/10/30 10:20:40;;;;;;;12.88;7.90;;;29.40;70.30;;;;;;5020938;28;20085;-78
2022/10/30 10:23:32;;;;;;;13.75;7.70;;;28.90;70.20;;;;;;5020514;28;20493;-78
2022/10/30 10:26:04;;;;;;;13.40;7.80;;;28.40;70.40;;;;;;4982818;28;20042;-77
2022/10/30 10:28:51;;;;;;;11.60;7.50;;;27.90;72.10;;;;;;5013399;28;20044;-79
2022/10/30 10:31:42;;;;;;;14.45;8.32;;;27.10;72.30;;;;;;5002276;28;20065;-79
2022/10/30 10:34:25;;;;;;;13.65;7.85;;;26.60;76.10;;;;;;4973760;28;20049;-77
2022/10/30 10:37:03;;;;;;;16.17;7.63;;;26.60;77.80;;;;;;4985797;28;20057;-78
2022/10/30 10:39:41;;;;;;;16.17;7.90;;;26.90;77.80;;;;;;4987612;28;20474;-78
2022/10/30 10:42:16;;;;;;;14.13;8.10;;;27.10;76.70;;;;;;4988380;28;20382;-78
2022/10/30 10:45:25;;;;;;;13.48;8.15;;;27.10;78.00;;;;;;5001752;28;20058;-78
2022/10/30 10:48:13;;;;;;;14.32;7.70;;;27.40;77.00;;;;;;4986287;28;20050;-78
2022/10/30 10:50:49;;;;;;;12.82;8.27;;;27.30;75.50;;;;;;5004736;28;20057;-77
2022/10/30 10:53:28;;;;;;;15.00;7.82;;;27.30;76.70;;;;;;4982631;28;20045;-78
2022/10/30 10:55:59;;;;;;;14.55;8.35;;;27.00;75.70;;;;;;5019484;28;20045;-78
2022/10/30 10:58:40;;;;;;;14.45;7.72;;;26.80;76.80;;;;;;5003154;28;20081;-77
2022/10/30 11:01:13;;;;;;;14.07;7.82;;;26.60;77.70;;;;;;4970106;28;20134;-77
2022/10/30 11:03:48;;;;;;;15.03;7.93;;;26.50;78.40;;;;;;5002198;28;20141;-78
2022/10/30 11:06:19;;;;;;;13.20;8.75;;;26.20;78.20;;;;;;4987877;28;20497;-78
2022/10/30 11:08:44;;;;;;;15.05;8.50;;;25.60;80.00;;;;;;4981830;28;20112;-78
2022/10/30 11:11:10;;;;;;;17.88;9.50;;;24.90;82.40;;;;;;4984444;28;20038;-78
2022/10/30 11:13:38;;;;;;;13.82;9.23;;;24.30;85.00;;;;;;5016466;28;20129;-78
2022/10/30 11:16:16;;;;;;;13.05;9.25;;;23.70;87.60;;;;;;4991721;28;20050;-78
2022/10/30 11:18:44;;;;;;;14.73;10.00;;;23.20;89.60;;;;;;4999969;28;20050;-78
2022/10/30 11:21:16;;;;;;;14.27;9.77;;;22.80;90.70;;;;;;5016610;28;20050;-78
2022/10/30 11:23:44;;;;;;;18.42;9.95;;;22.40;92.10;;;;;;4974382;28;20229;-78
2022/10/30 11:26:16;;;;;;;19.15;9.60;;;22.10;94.10;;;;;;4990947;28;20038;-78
2022/10/30 11:29:04;;;;;;;15.77;10.35;;;21.80;95.50;;;;;;5002008;28;20061;-78
2022/10/30 11:31:33;;;;;;;16.27;10.73;;;21.60;96.60;;;;;;5002217;28;20070;-78
2022/10/30 11:34:17;;;;;;;17.38;10.55;;;21.40;98.50;;;;;;4990219;28;20091;-78
2022/10/30 11:36:51;;;;;;;19.88;10.65;;;21.20;99.10;;;;;;4993011;28;20061;-78
2022/10/30 11:39:26;;;;;;;17.52;11.57;;;21.10;99.90;;;;;;5004094;28;20108;-78
2022/10/30 11:42:27;;;;;;;19.52;10.90;;;21.00;99.90;;;;;;5003764;28;20065;-79
2022/10/30 11:44:53;;;;;;;15.70;11.25;;;21.00;99.90;;;;;;4940003;28;20126;-79
2022/10/30 11:47:33;;;;;;;14.55;10.57;;;20.90;99.90;;;;;;4976098;28;20517;-78
2022/10/30 11:50:06;;;;;;;17.48;10.70;;;20.80;99.90;;;;;;4988664;28;20570;-78
2022/10/30 11:52:39;;;;;;;15.10;10.05;;;20.80;99.90;;;;;;4976501;28;20046;-78
2022/10/30 11:55:15;;;;;;;14.23;9.60;;;20.70;99.90;;;;;;4986858;28;20516;-78
2022/10/30 11:57:47;;;;;;;16.30;10.02;;;20.70;99.90;;;;;;5006311;28;20494;-78
2022/10/30 12:00:16;;;;;;;13.90;8.80;;;20.70;99.90;;;;;;4984366;28;20133;-78
2022/10/30 12:02:50;;;;;;;17.10;10.25;;;20.70;99.90;;;;;;4990798;28;20053;-80
2022/10/30 12:05:24;;;;;;;15.95;9.60;;;20.70;99.90;;;;;;5001976;28;20427;-78
2022/10/30 12:07:51;;;;;;;13.77;10.68;;;20.70;99.90;;;;;;4990102;28;20080;-78
2022/10/30 12:10:25;;;;;;;16.55;11.25;;;20.60;99.90;;;;;;5002388;28;20046;-78
2022/10/30 12:12:51;;;;;;;17.08;11.43;;;20.60;99.90;;;;;;4988245;28;20054;-78
2022/10/30 12:15:24;;;;;;;17.73;11.23;;;20.50;99.90;;;;;;4986533;28;20052;-78
2022/10/30 12:17:58;;;;;;;19.05;10.82;;;20.60;99.90;;;;;;4989802;28;20559;-78
2022/10/30 12:20:25;;;;;;;18.42;11.70;;;20.60;99.90;;;;;;4983862;28;20053;-78
2022/10/30 12:22:51;;;;;;;16.83;11.38;;;20.60;99.90;;;;;;4989964;28;20058;-79
2022/10/30 12:25:38;;;;;;;22.10;10.95;;;20.60;99.90;;;;;;4988386;28;20051;-78
2022/10/30 12:28:14;;;;;;;19.65;11.30;;;20.70;99.90;;;;;;4989701;28;20104;-79
2022/10/30 12:31:01;;;;;;;18.45;10.52;;;20.60;99.90;;;;;;5001429;28;20124;-80
2022/10/30 12:33:49;;;;;;;18.55;10.90;;;20.60;99.90;;;;;;4989959;28;20055;-79
2022/10/30 12:37:02;;;;;;;18.85;10.75;;;20.40;99.90;;;;;;4988914;28;20433;-79
2022/10/30 12:40:07;;;;;;;19.35;10.38;;;20.40;99.90;;;;;;5011871;28;20121;-78
2022/10/30 12:42:39;;;;;;;;;;;20.40;99.90;;;;;;4964839;28;20056;-78